createdAt,value
2022-11-09T00:05:14.901Z,22.6
2022-11-09T00:10:33.667Z,22.6
2022-11-09T00:15:52.171Z,22.6
2022-11-09T00:21:10.906Z,22.6
2022-11-09T00:26:29.123Z,22.6
2022-11-09T00:31:47.360Z,22.6
2022-11-09T00:37:05.820Z,22.6
2022-11-09T00:42:24.032Z,22.6
2022-11-09T00:47:42.572Z,22.6
2022-11-09T00:53:01.306Z,22.6
2022-11-09T00:58:20.075Z,22.6
2022-11-09T01:03:38.601Z,22.6
2022-11-09T01:08:57.347Z,22.6
2022-11-09T01:14:15.556Z,22.6
2022-11-09T01:19:34.203Z,22.6
2022-11-09T01:24:52.674Z,22.6
2022-11-09T01:30:11.163Z,22.6
2022-11-09T01:35:29.960Z,22.6
2022-11-09T01:40:47.862Z,22.6
2022-11-09T01:46:06.639Z,22.6
2022-11-09T01:51:25.153Z,22.6
2022-11-09T01:56:43.903Z,22.6
2022-11-09T02:02:02.686Z,22.6
2022-11-09T02:07:20.932Z,22.6
2022-11-09T02:12:39.112Z,22.6
2022-11-09T02:17:57.045Z,22.6
2022-11-09T02:23:15.299Z,22.6
2022-11-09T02:28:33.766Z,22.6
2022-11-09T02:33:52.266Z,22.6
2022-11-09T02:39:10.782Z,22.6
2022-11-09T02:44:29.234Z,22.6
2022-11-09T02:49:47.458Z,22.6
2022-11-09T02:55:06.345Z,22.6
2022-11-09T03:00:24.453Z,22.6
2022-11-09T03:05:43.255Z,22.6
2022-11-09T03:11:01.777Z,22.6
2022-11-09T03:16:19.966Z,22.6
2022-11-09T03:21:38.734Z,22.6
2022-11-09T03:26:57.000Z,22.6
2022-11-09T03:32:15.176Z,22.6
2022-11-09T03:37:33.160Z,22.6
2022-11-09T03:42:51.548Z,22.7
2022-11-09T03:48:09.734Z,22.6
2022-11-09T03:53:27.938Z,22.6
2022-11-09T03:58:46.581Z,22.6
2022-11-09T04:04:04.568Z,22.6
2022-11-09T04:09:23.334Z,22.6
2022-11-09T04:14:42.118Z,22.6
2022-11-09T04:20:00.588Z,22.6
2022-11-09T04:25:19.084Z,22.6
2022-11-09T04:30:37.897Z,22.6
2022-11-09T04:35:56.083Z,22.6
2022-11-09T04:41:14.850Z,22.6
2022-11-09T04:46:33.365Z,22.6
2022-11-09T04:51:52.108Z,22.6
2022-11-09T04:57:10.329Z,22.6
2022-11-09T05:02:28.845Z,22.6
2022-11-09T05:07:47.039Z,22.6
2022-11-09T05:13:05.817Z,22.6
2022-11-09T05:18:24.328Z,22.6
2022-11-09T05:23:42.785Z,22.7
2022-11-09T05:29:01.579Z,22.7
2022-11-09T05:34:20.073Z,22.7
2022-11-09T05:39:38.535Z,22.7
2022-11-09T05:44:57.329Z,22.8
2022-11-09T05:50:15.577Z,22.7
2022-11-09T05:55:33.748Z,22.8
2022-11-09T06:00:51.683Z,22.8
2022-11-09T06:06:10.289Z,22.8
2022-11-09T06:11:28.544Z,22.7
2022-11-09T06:16:47.356Z,22.8
2022-11-09T06:22:05.567Z,22.7
2022-11-09T06:27:24.039Z,22.7
2022-11-09T06:32:42.494Z,22.7
2022-11-09T06:38:00.999Z,22.7
2022-11-09T06:43:20.122Z,22.8
2022-11-09T06:48:39.513Z,22.8
2022-11-09T06:53:58.348Z,22.8
2022-11-09T06:59:16.820Z,22.9
2022-11-09T07:04:35.598Z,22.7
2022-11-09T07:09:54.396Z,22.4
2022-11-09T07:15:12.870Z,22.3
2022-11-09T07:20:31.805Z,22.1
2022-11-09T07:25:50.629Z,22
2022-11-09T07:31:09.361Z,22
2022-11-09T07:36:27.579Z,22
2022-11-09T07:41:46.393Z,22.1
2022-11-09T07:47:04.365Z,22.2
2022-11-09T07:52:22.577Z,22.3
2022-11-09T07:57:41.137Z,22.4
2022-11-09T08:02:59.950Z,22.5
2022-11-09T08:08:18.714Z,22.6
2022-11-09T08:13:37.221Z,22.7
2022-11-09T08:18:55.409Z,22.7
2022-11-09T08:24:13.626Z,22.8
2022-11-09T08:29:31.854Z,22.9
2022-11-09T08:34:50.033Z,22.9
2022-11-09T08:40:08.225Z,23
2022-11-09T08:45:27.051Z,23.1
2022-11-09T08:50:45.526Z,23.1
2022-11-09T08:56:04.010Z,23.2
2022-11-09T09:01:22.808Z,23.2
2022-11-09T09:06:41.393Z,23.3
2022-11-09T09:11:44.481Z,23.3
2022-11-09T09:16:47.648Z,23.3
2022-11-09T09:22:06.392Z,23.4
2022-11-09T09:27:24.805Z,23.4
2022-11-09T09:32:43.065Z,23.4
2022-11-09T09:38:01.538Z,23.5
2022-11-09T09:43:19.750Z,23.5
2022-11-09T09:48:37.695Z,23.5
2022-11-09T09:54:02.006Z,23.5
2022-11-09T09:59:20.780Z,23.6
2022-11-09T10:04:39.060Z,23.6
2022-11-09T10:09:57.635Z,23.6
2022-11-09T10:15:00.769Z,23.6
2022-11-09T10:20:19.001Z,23.7
2022-11-09T10:26:04.749Z,23.7
2022-11-09T10:31:29.714Z,23.7
2022-11-09T10:36:48.488Z,23.7
2022-11-09T10:42:06.666Z,23.7
2022-11-09T10:47:25.428Z,23.7
2022-11-09T10:52:47.992Z,23.7
2022-11-09T10:58:06.459Z,23.7
2022-11-09T11:03:25.253Z,23.7
2022-11-09T11:08:43.861Z,23.7
2022-11-09T11:14:02.329Z,23.7
2022-11-09T11:19:20.818Z,23.7
2022-11-09T11:24:39.630Z,23.7
2022-11-09T11:29:58.301Z,23.7
2022-11-09T11:35:16.859Z,23.7
2022-11-09T11:40:35.489Z,23.7
2022-11-09T11:45:53.677Z,23.7
2022-11-09T11:51:11.609Z,23.7
2022-11-09T11:56:29.963Z,23.7
2022-11-09T12:01:48.237Z,23.7
2022-11-09T12:07:06.908Z,23.6
2022-11-09T12:12:25.080Z,23.6
2022-11-09T12:17:43.541Z,23.6
2022-11-09T12:23:02.019Z,23.6
2022-11-09T12:28:20.565Z,23.6
2022-11-09T12:33:43.952Z,23.5
2022-11-09T12:39:02.345Z,23.5
2022-11-09T12:44:20.864Z,23.5
2022-11-09T12:49:39.628Z,23.5
2022-11-09T12:54:58.102Z,23.5
2022-11-09T13:00:16.667Z,23.5
2022-11-09T13:05:35.105Z,23.5
2022-11-09T13:10:53.601Z,23.5
2022-11-09T13:16:12.497Z,23.5
2022-11-09T13:21:31.042Z,23.4
2022-11-09T13:26:49.547Z,23.4
2022-11-09T13:32:07.802Z,23.4
2022-11-09T13:37:25.978Z,23.4
2022-11-09T13:42:44.470Z,23.4
2022-11-09T13:48:03.081Z,23.4
2022-11-09T13:53:21.378Z,23.4
2022-11-09T13:58:40.152Z,23.4
2022-11-09T14:03:58.375Z,23.3
2022-11-09T14:09:16.574Z,23.3
2022-11-09T14:14:35.057Z,23.3
2022-11-09T14:19:53.569Z,23.3
2022-11-09T14:25:11.748Z,23.3
2022-11-09T14:30:30.239Z,23.2
2022-11-09T14:35:51.433Z,23.2
2022-11-09T14:41:09.611Z,23.2
2022-11-09T14:46:28.089Z,23.2
2022-11-09T14:51:46.789Z,23.2
2022-11-09T14:57:05.454Z,23.2
2022-11-09T15:02:23.938Z,23.2
2022-11-09T15:07:42.621Z,23.1
2022-11-09T15:13:01.531Z,23.1
2022-11-09T15:18:20.307Z,23.1
2022-11-09T15:23:39.562Z,23.1
2022-11-09T15:28:58.043Z,23.1
2022-11-09T15:34:16.819Z,23.1
2022-11-09T15:39:35.301Z,23
2022-11-09T15:44:53.462Z,23
2022-11-09T15:50:11.375Z,23
2022-11-09T15:55:29.604Z,23
2022-11-09T16:00:48.018Z,23
2022-11-09T16:06:06.916Z,23
2022-11-09T16:11:25.415Z,23
2022-11-09T16:16:43.880Z,23
2022-11-09T16:22:02.111Z,23
2022-11-09T16:27:50.821Z,23
2022-11-09T16:33:10.065Z,23
2022-11-09T16:38:28.283Z,23
2022-11-09T16:43:46.239Z,23
2022-11-09T16:49:04.425Z,22.9
2022-11-09T16:54:22.620Z,22.9
2022-11-09T16:59:41.135Z,22.9
2022-11-09T17:04:59.605Z,22.9
2022-11-09T17:10:17.801Z,23
2022-11-09T17:15:36.035Z,22.9
2022-11-09T17:20:54.779Z,22.9
2022-11-09T17:26:13.272Z,23
2022-11-09T17:31:31.501Z,22.9
2022-11-09T17:37:05.537Z,22.9
2022-11-09T17:42:24.072Z,22.9
2022-11-09T17:47:42.602Z,22.9
2022-11-09T17:53:01.067Z,22.9
2022-11-09T17:58:20.266Z,22.9
2022-11-09T18:03:39.126Z,22.9
2022-11-09T18:09:41.086Z,22.9
2022-11-09T18:15:00.435Z,22.9
2022-11-09T18:20:19.246Z,22.9
2022-11-09T18:25:37.447Z,22.9
2022-11-09T18:30:55.624Z,22.9
2022-11-09T18:36:14.448Z,22.9
2022-11-09T18:41:32.895Z,22.9
2022-11-09T18:46:51.650Z,22.8
2022-11-09T18:51:54.276Z,22.8
2022-11-09T18:57:20.088Z,22.8
2022-11-09T19:02:38.988Z,22.8
2022-11-09T19:07:57.870Z,22.8
2022-11-09T19:13:16.053Z,22.8
2022-11-09T19:18:39.800Z,22.8
2022-11-09T19:23:58.309Z,22.8
2022-11-09T19:29:00.860Z,22.8
2022-11-09T19:34:19.305Z,22.8
2022-11-09T19:39:43.548Z,22.8
2022-11-09T19:44:46.128Z,22.7
2022-11-09T19:50:05.088Z,22.7
2022-11-09T19:55:26.121Z,22.7
2022-11-09T20:00:44.046Z,22.8
2022-11-09T20:06:02.533Z,22.8
2022-11-09T20:11:20.761Z,22.7
2022-11-09T20:16:39.214Z,22.7
2022-11-09T20:21:57.973Z,22.7
2022-11-09T20:27:00.575Z,22.7
2022-11-09T20:32:22.152Z,22.7
2022-11-09T20:37:40.938Z,22.7
2022-11-09T20:42:59.724Z,22.8
2022-11-09T20:48:53.847Z,22.8
2022-11-09T20:54:13.977Z,22.8
2022-11-09T20:59:32.482Z,22.7
2022-11-09T21:04:51.216Z,22.7
2022-11-09T21:10:09.422Z,22.7
2022-11-09T21:15:28.212Z,22.7
2022-11-09T21:20:46.382Z,22.7
2022-11-09T21:26:04.871Z,22.7
2022-11-09T21:31:23.410Z,22.7
2022-11-09T21:36:42.144Z,22.7
2022-11-09T21:42:00.343Z,22.8
2022-11-09T21:47:18.568Z,22.8
2022-11-09T21:52:37.337Z,22.8
2022-11-09T21:57:56.106Z,22.8
2022-11-09T22:03:14.610Z,22.8
2022-11-09T22:08:33.081Z,22.7
2022-11-09T22:13:51.564Z,22.7
2022-11-09T22:19:10.072Z,22.7
2022-11-09T22:24:28.257Z,22.7
2022-11-09T22:29:47.011Z,22.7
2022-11-09T22:35:05.820Z,22.7
2022-11-09T22:40:24.010Z,22.7
2022-11-09T22:45:42.222Z,22.7
2022-11-09T22:51:00.788Z,22.7
2022-11-09T22:56:19.522Z,22.7
2022-11-09T23:01:38.447Z,22.7
2022-11-09T23:06:57.505Z,22.7
2022-11-09T23:12:15.814Z,22.7
2022-11-09T23:17:18.412Z,22.7
2022-11-09T23:22:36.926Z,22.8
2022-11-09T23:27:55.392Z,22.8
2022-11-09T23:33:13.880Z,22.8
2022-11-09T23:38:32.695Z,22.8
2022-11-09T23:43:51.155Z,22.9
2022-11-09T23:49:09.646Z,22.9
2022-11-09T23:54:28.427Z,22.9
2022-11-09T23:59:30.994Z,22.9
